createdAt,value
2019-03-12T00:00:08.685Z,12.40
2019-03-12T00:00:43.745Z,16.40
2019-03-12T00:01:19.044Z,22.60
2019-03-12T00:01:54.143Z,21.40
2019-03-12T00:02:29.554Z,40.90
2019-03-12T00:03:04.742Z,17.70
2019-03-12T00:03:40.269Z,22.00
2019-03-12T00:04:15.549Z,30.40
2019-03-12T00:04:51.067Z,29.60
2019-03-12T00:05:26.398Z,18.60
2019-03-12T00:06:01.584Z,17.50
2019-03-12T00:06:36.714Z,17.90
2019-03-12T00:07:12.103Z,15.30
2019-03-12T00:07:47.509Z,15.30
2019-03-12T00:08:22.704Z,15.10
2019-03-12T00:08:58.208Z,12.30
2019-03-12T00:09:33.397Z,12.00
2019-03-12T00:10:08.734Z,23.10
2019-03-12T00:10:43.838Z,27.00
2019-03-12T00:11:19.420Z,17.60
2019-03-12T00:11:55.036Z,22.90
2019-03-12T00:12:30.326Z,24.20
2019-03-12T00:13:05.545Z,24.40
2019-03-12T00:13:40.832Z,19.70
2019-03-12T00:14:16.151Z,13.60
2019-03-12T00:14:51.772Z,17.60
2019-03-12T00:15:27.071Z,21.70
2019-03-12T00:16:02.387Z,18.30
2019-03-12T00:16:37.880Z,16.20
2019-03-12T00:17:13.412Z,20.50
2019-03-12T00:17:48.894Z,15.80
2019-03-12T00:18:24.402Z,14.00
2019-03-12T00:18:59.860Z,13.30
2019-03-12T00:19:35.019Z,17.30
2019-03-12T00:20:10.449Z,16.30
2019-03-12T00:20:45.726Z,17.80
2019-03-12T00:21:21.140Z,17.10
2019-03-12T00:21:56.533Z,17.50
2019-03-12T00:22:32.147Z,23.70
2019-03-12T00:23:07.757Z,16.90
2019-03-12T00:23:43.131Z,22.00
2019-03-12T00:24:18.269Z,20.60
2019-03-12T00:24:53.974Z,19.50
2019-03-12T00:25:29.571Z,14.20
2019-03-12T00:26:04.880Z,14.70
2019-03-12T00:26:40.483Z,18.10
2019-03-12T00:27:15.991Z,18.20
2019-03-12T00:27:51.183Z,18.80
2019-03-12T00:28:26.706Z,17.00
2019-03-12T00:29:01.983Z,19.80
2019-03-12T00:29:36.992Z,18.60
2019-03-12T00:30:12.354Z,14.60
2019-03-12T00:30:47.531Z,14.40
2019-03-12T00:31:22.844Z,14.70
2019-03-12T00:31:58.143Z,22.30
2019-03-12T00:32:33.450Z,23.00
2019-03-12T00:33:08.624Z,26.10
2019-03-12T00:33:43.723Z,22.30
2019-03-12T00:34:19.006Z,14.00
2019-03-12T00:34:54.320Z,11.80
2019-03-12T00:35:29.933Z,17.20
2019-03-12T00:36:05.541Z,22.60
2019-03-12T00:36:40.849Z,18.10
2019-03-12T00:37:16.229Z,23.80
2019-03-12T00:37:51.335Z,30.50
2019-03-12T00:38:26.615Z,23.60
2019-03-12T00:39:02.020Z,16.40
2019-03-12T00:39:37.400Z,20.20
2019-03-12T00:40:12.769Z,24.80
2019-03-12T00:40:48.385Z,20.70
2019-03-12T00:41:23.893Z,20.30
2019-03-12T00:41:59.109Z,21.70
2019-03-12T00:42:34.687Z,17.90
2019-03-12T00:43:09.785Z,19.50
2019-03-12T00:43:44.956Z,18.60
2019-03-12T00:44:20.103Z,15.80
2019-03-12T00:44:55.439Z,22.90
2019-03-12T00:45:31.037Z,17.60
2019-03-12T00:46:06.342Z,18.70
2019-03-12T00:46:41.722Z,23.50
2019-03-12T00:47:17.133Z,20.80
2019-03-12T00:47:52.335Z,17.80
2019-03-12T00:48:27.529Z,19.90
2019-03-12T00:49:03.149Z,22.40
2019-03-12T00:49:38.414Z,17.00
2019-03-12T00:50:13.742Z,22.80
2019-03-12T00:50:49.437Z,22.60
2019-03-12T00:51:24.649Z,20.50
2019-03-12T00:51:59.955Z,24.40
2019-03-12T00:52:35.359Z,30.50
2019-03-12T00:53:10.642Z,26.40
2019-03-12T00:53:46.144Z,17.10
2019-03-12T00:54:21.857Z,14.30
2019-03-12T00:54:57.081Z,11.40
2019-03-12T00:55:32.112Z,18.80
2019-03-12T00:56:07.674Z,19.70
2019-03-12T00:56:42.872Z,13.50
2019-03-12T00:57:18.254Z,16.80
2019-03-12T00:57:53.769Z,19.20
2019-03-12T00:58:29.272Z,17.40
2019-03-12T00:59:04.698Z,22.70
2019-03-12T00:59:40.222Z,22.20
2019-03-12T01:00:15.630Z,27.50
2019-03-12T01:00:50.959Z,22.20
2019-03-12T01:01:26.081Z,20.00
2019-03-12T01:02:01.589Z,18.10
2019-03-12T01:02:36.901Z,20.50
2019-03-12T01:03:12.078Z,23.10
2019-03-12T01:03:47.408Z,18.90
2019-03-12T01:04:22.894Z,22.60
2019-03-12T01:04:58.136Z,17.30
2019-03-12T01:05:33.517Z,16.70
2019-03-12T01:06:08.723Z,19.50
2019-03-12T01:06:44.237Z,22.00
2019-03-12T01:07:19.623Z,18.10
2019-03-12T01:07:55.438Z,18.40
2019-03-12T01:08:30.842Z,21.40
2019-03-12T01:09:06.150Z,16.80
2019-03-12T01:09:41.418Z,21.10
2019-03-12T01:10:16.736Z,20.20
2019-03-12T01:10:52.282Z,19.70
2019-03-12T01:11:27.480Z,21.30
2019-03-12T01:12:03.216Z,24.10
2019-03-12T01:12:38.490Z,20.90
2019-03-12T01:13:13.794Z,16.50
2019-03-12T01:13:49.117Z,14.20
2019-03-12T01:14:24.407Z,9.10
2019-03-12T01:14:59.802Z,12.00
2019-03-12T01:15:35.195Z,13.30
2019-03-12T01:16:10.712Z,11.60
2019-03-12T01:16:46.328Z,15.90
2019-03-12T01:17:21.734Z,21.70
2019-03-12T01:17:57.068Z,17.60
2019-03-12T01:18:32.751Z,20.10
2019-03-12T01:19:08.400Z,18.60
2019-03-12T01:19:43.728Z,16.70
2019-03-12T01:20:19.134Z,25.00
2019-03-12T01:20:54.311Z,23.60
2019-03-12T01:21:29.828Z,21.10
2019-03-12T01:22:05.148Z,21.80
2019-03-12T01:22:40.721Z,12.30
2019-03-12T01:23:15.940Z,19.90
2019-03-12T01:23:51.239Z,22.30
2019-03-12T01:24:26.764Z,19.90
2019-03-12T01:25:02.387Z,22.70
2019-03-12T01:25:37.840Z,23.40
2019-03-12T01:26:13.213Z,17.10
2019-03-12T01:26:48.708Z,29.80
2019-03-12T01:27:24.335Z,25.10
2019-03-12T01:27:59.519Z,16.30
2019-03-12T01:28:34.825Z,20.30
2019-03-12T01:29:10.062Z,20.60
2019-03-12T01:29:45.567Z,22.20
2019-03-12T01:30:20.887Z,22.30
2019-03-12T01:30:56.073Z,17.80
2019-03-12T01:31:31.274Z,19.00
2019-03-12T01:32:06.688Z,21.00
2019-03-12T01:32:41.798Z,16.90
2019-03-12T01:33:17.216Z,22.00
2019-03-12T01:33:52.697Z,15.00
2019-03-12T01:34:28.207Z,13.10
2019-03-12T01:35:03.524Z,16.80
2019-03-12T01:35:38.932Z,19.30
2019-03-12T01:36:14.321Z,18.40
2019-03-12T01:36:49.725Z,21.80
2019-03-12T01:37:25.355Z,14.50
2019-03-12T01:38:01.234Z,20.60
2019-03-12T01:38:36.650Z,21.90
2019-03-12T01:39:11.933Z,17.70
2019-03-12T01:39:47.753Z,19.30
2019-03-12T01:40:23.236Z,16.80
2019-03-12T01:40:58.330Z,23.00
2019-03-12T01:41:33.549Z,27.10
2019-03-12T01:42:08.848Z,19.80
2019-03-12T01:42:44.070Z,16.40
2019-03-12T01:43:19.353Z,21.50
2019-03-12T01:43:55.066Z,22.40
2019-03-12T01:44:30.595Z,20.50
2019-03-12T01:45:05.787Z,22.60
2019-03-12T01:45:41.211Z,16.30
2019-03-12T01:46:16.502Z,18.40
2019-03-12T01:46:51.928Z,24.30
2019-03-12T01:47:27.420Z,17.40
2019-03-12T01:48:02.629Z,14.70
2019-03-12T01:48:37.739Z,15.40
2019-03-12T01:49:13.129Z,23.50
2019-03-12T01:49:48.552Z,30.70
2019-03-12T01:50:23.942Z,25.30
2019-03-12T01:50:59.812Z,17.70
2019-03-12T01:51:34.925Z,15.30
2019-03-12T01:52:10.248Z,19.50
2019-03-12T01:52:45.466Z,21.70
2019-03-12T01:53:20.558Z,26.60
2019-03-12T01:53:56.030Z,26.30
2019-03-12T01:54:31.543Z,19.30
2019-03-12T01:55:07.055Z,29.10
2019-03-12T01:55:42.639Z,30.20
2019-03-12T01:56:17.882Z,23.10
2019-03-12T01:56:53.159Z,19.30
2019-03-12T01:57:28.561Z,16.40
2019-03-12T01:58:03.742Z,12.90
2019-03-12T01:58:38.848Z,24.50
2019-03-12T01:59:14.360Z,27.20
2019-03-12T01:59:49.639Z,25.10
2019-03-12T02:00:25.050Z,23.50
2019-03-12T02:01:00.429Z,17.40
2019-03-12T02:01:35.780Z,20.70
2019-03-12T02:02:10.924Z,18.50
2019-03-12T02:02:46.701Z,22.30
2019-03-12T02:03:22.136Z,22.80
2019-03-12T02:03:57.525Z,19.60
2019-03-12T02:04:32.758Z,22.20
2019-03-12T02:05:08.189Z,24.20
2019-03-12T02:05:43.972Z,14.00
2019-03-12T02:06:19.877Z,15.30
2019-03-12T02:06:57.386Z,28.60
2019-03-12T02:07:30.478Z,23.60
2019-03-12T02:08:05.899Z,18.70
2019-03-12T02:08:41.371Z,21.70
2019-03-12T02:09:16.788Z,22.80
2019-03-12T02:09:52.188Z,24.60
2019-03-12T02:10:27.616Z,19.20
2019-03-12T02:11:03.153Z,16.60
2019-03-12T02:11:38.462Z,21.40
2019-03-12T02:12:13.521Z,24.30
2019-03-12T02:12:49.085Z,30.00
2019-03-12T02:13:24.471Z,26.80
2019-03-12T02:14:00.109Z,23.10
2019-03-12T02:14:35.729Z,15.60
2019-03-12T02:15:11.167Z,17.30
2019-03-12T02:15:46.402Z,21.20
2019-03-12T02:16:21.898Z,18.30
2019-03-12T02:16:56.947Z,22.90
2019-03-12T02:17:32.202Z,21.10
2019-03-12T02:18:07.550Z,17.10
2019-03-12T02:18:42.928Z,21.40
2019-03-12T02:19:18.488Z,25.50
2019-03-12T02:19:53.900Z,25.80
2019-03-12T02:20:29.315Z,25.10
2019-03-12T02:21:04.766Z,25.00
2019-03-12T02:21:40.062Z,35.30
2019-03-12T02:22:15.884Z,21.80
2019-03-12T02:22:51.044Z,25.80
2019-03-12T02:23:28.738Z,20.90
2019-03-12T02:24:01.595Z,17.40
2019-03-12T02:24:36.921Z,23.90
2019-03-12T02:25:12.287Z,23.30
2019-03-12T02:25:47.272Z,17.20
2019-03-12T02:26:22.487Z,19.80
2019-03-12T02:26:57.710Z,22.40
2019-03-12T02:27:32.928Z,22.40
2019-03-12T02:28:08.271Z,15.80
2019-03-12T02:28:43.695Z,20.70
2019-03-12T02:29:19.004Z,18.80
2019-03-12T02:29:54.291Z,13.60
2019-03-12T02:30:29.495Z,18.10
2019-03-12T02:31:04.957Z,16.20
2019-03-12T02:31:40.444Z,18.70
2019-03-12T02:32:15.828Z,22.50
2019-03-12T02:32:51.001Z,17.40
2019-03-12T02:33:26.353Z,17.00
2019-03-12T02:34:01.779Z,19.90
2019-03-12T02:34:37.071Z,21.10
2019-03-12T02:35:12.142Z,18.60
2019-03-12T02:35:53.940Z,18.80
2019-03-12T02:36:29.221Z,20.80
2019-03-12T02:37:04.532Z,22.90
2019-03-12T02:37:39.754Z,23.20
2019-03-12T02:38:15.045Z,25.00
2019-03-12T02:38:50.187Z,25.50
2019-03-12T02:39:25.772Z,26.60
2019-03-12T02:40:01.289Z,22.60
2019-03-12T02:40:36.314Z,18.20
2019-03-12T02:41:11.842Z,19.10
2019-03-12T02:41:47.358Z,15.00
2019-03-12T02:42:22.667Z,16.20
2019-03-12T02:42:58.076Z,22.50
2019-03-12T02:43:33.467Z,26.30
2019-03-12T02:44:08.715Z,23.10
2019-03-12T02:44:44.007Z,20.30
2019-03-12T02:45:19.220Z,17.30
2019-03-12T02:45:54.363Z,21.10
2019-03-12T02:46:29.457Z,20.10
2019-03-12T02:47:04.872Z,23.80
2019-03-12T02:47:40.206Z,23.90
2019-03-12T02:48:15.491Z,22.40
2019-03-12T02:48:51.017Z,26.10
2019-03-12T02:49:26.454Z,27.00
2019-03-12T02:50:01.769Z,22.10
2019-03-12T02:50:37.010Z,21.90
2019-03-12T02:51:12.601Z,20.00
2019-03-12T02:51:47.937Z,24.90
2019-03-12T02:52:23.090Z,18.60
2019-03-12T02:52:58.080Z,15.20
2019-03-12T02:53:33.501Z,21.40
2019-03-12T02:54:09.040Z,22.30
2019-03-12T02:54:44.366Z,15.20
2019-03-12T02:55:19.569Z,19.30
2019-03-12T02:55:54.999Z,23.50
2019-03-12T02:56:30.316Z,27.50
2019-03-12T02:57:05.608Z,24.60
2019-03-12T02:57:40.824Z,21.10
2019-03-12T02:58:16.218Z,27.20
2019-03-12T02:58:51.548Z,28.50
2019-03-12T02:59:27.084Z,30.90
2019-03-12T03:00:02.918Z,22.60
2019-03-12T03:00:38.143Z,21.40
2019-03-12T03:01:13.679Z,23.30
2019-03-12T03:01:49.159Z,22.80
2019-03-12T03:02:24.661Z,24.30
2019-03-12T03:02:59.960Z,24.60
2019-03-12T03:03:35.473Z,19.90
2019-03-12T03:04:10.769Z,24.80
2019-03-12T03:04:45.783Z,26.00
2019-03-12T03:05:21.217Z,26.70
2019-03-12T03:05:56.937Z,23.30
2019-03-12T03:06:32.225Z,25.50
2019-03-12T03:07:07.542Z,23.50
2019-03-12T03:07:42.920Z,28.40
2019-03-12T03:08:18.141Z,25.40
2019-03-12T03:08:53.454Z,26.00
2019-03-12T03:09:28.841Z,23.00
2019-03-12T03:10:04.169Z,28.40
2019-03-12T03:10:39.484Z,28.70
2019-03-12T03:11:14.993Z,26.10
2019-03-12T03:11:51.203Z,30.30
2019-03-12T03:12:25.455Z,26.80
2019-03-12T03:13:01.260Z,29.40
2019-03-12T03:13:36.430Z,26.40
2019-03-12T03:14:11.665Z,27.50
2019-03-12T03:14:46.777Z,24.40
2019-03-12T03:15:22.196Z,21.20
2019-03-12T03:15:57.495Z,22.70
2019-03-12T03:16:32.920Z,33.80
2019-03-12T03:17:08.222Z,24.90
2019-03-12T03:17:43.315Z,25.70
2019-03-12T03:18:18.735Z,26.10
2019-03-12T03:18:54.320Z,29.40
2019-03-12T03:19:29.541Z,26.70
2019-03-12T03:20:05.154Z,25.30
2019-03-12T03:20:40.574Z,31.00
2019-03-12T03:21:16.027Z,32.60
2019-03-12T03:21:51.224Z,28.90
2019-03-12T03:22:26.432Z,25.00
2019-03-12T03:23:01.643Z,26.20
2019-03-12T03:23:37.123Z,27.40
2019-03-12T03:24:12.347Z,31.10
2019-03-12T03:24:47.794Z,29.70
2019-03-12T03:25:23.263Z,27.60
2019-03-12T03:25:58.390Z,28.80
2019-03-12T03:26:33.510Z,27.10
2019-03-12T03:27:08.806Z,37.50
2019-03-12T03:27:44.128Z,35.80
2019-03-12T03:28:19.613Z,26.90
2019-03-12T03:28:55.154Z,30.50
2019-03-12T03:29:30.636Z,35.00
2019-03-12T03:30:05.850Z,35.00
2019-03-12T03:30:41.157Z,30.50
2019-03-12T03:31:17.010Z,32.20
2019-03-12T03:31:51.998Z,37.10
2019-03-12T03:32:27.515Z,30.70
2019-03-12T03:33:02.909Z,27.50
2019-03-12T03:33:37.897Z,28.20
2019-03-12T03:34:13.110Z,31.60
2019-03-12T03:34:48.538Z,31.40
2019-03-12T03:35:23.928Z,25.20
2019-03-12T03:35:59.288Z,34.80
2019-03-12T03:36:34.886Z,36.70
2019-03-12T03:37:10.194Z,34.10
2019-03-12T03:37:45.509Z,29.70
2019-03-12T03:38:20.633Z,33.90
2019-03-12T03:38:55.864Z,35.20
2019-03-12T03:39:31.291Z,38.70
2019-03-12T03:40:06.877Z,34.20
2019-03-12T03:40:42.166Z,28.50
2019-03-12T03:41:18.011Z,28.10
2019-03-12T03:41:52.911Z,34.70
2019-03-12T03:42:28.229Z,39.00
2019-03-12T03:43:03.486Z,34.00
2019-03-12T03:43:38.844Z,32.40
2019-03-12T03:44:14.389Z,27.10
2019-03-12T03:44:49.479Z,26.30
2019-03-12T03:45:25.005Z,29.00
2019-03-12T03:46:00.316Z,33.90
2019-03-12T03:46:36.093Z,40.50
2019-03-12T03:47:11.498Z,42.10
2019-03-12T03:47:46.971Z,36.10
2019-03-12T03:48:22.325Z,34.40
2019-03-12T03:48:57.779Z,39.40
2019-03-12T03:49:33.376Z,38.20
2019-03-12T03:50:08.882Z,36.20
2019-03-12T03:50:44.825Z,33.90
2019-03-12T03:51:20.176Z,31.40
2019-03-12T03:51:55.467Z,31.20
2019-03-12T03:52:30.769Z,38.50
2019-03-12T03:53:06.273Z,35.80
2019-03-12T03:53:41.601Z,31.30
2019-03-12T03:54:16.873Z,34.10
2019-03-12T03:54:52.197Z,36.20
2019-03-12T03:55:27.700Z,35.30
2019-03-12T03:56:03.069Z,37.90
2019-03-12T03:56:38.424Z,33.00
2019-03-12T03:57:13.994Z,36.40
2019-03-12T03:57:49.430Z,36.00
2019-03-12T03:58:24.626Z,40.30
2019-03-12T03:59:00.263Z,38.70
2019-03-12T03:59:35.587Z,38.30
2019-03-12T04:00:10.895Z,32.20
2019-03-12T04:00:46.301Z,32.80
2019-03-12T04:01:21.889Z,38.80
2019-03-12T04:01:57.233Z,40.30
2019-03-12T04:02:32.313Z,35.30
2019-03-12T04:03:07.732Z,37.70
2019-03-12T04:03:43.023Z,33.60
2019-03-12T04:04:18.441Z,28.70
2019-03-12T04:04:54.076Z,32.90
2019-03-12T04:05:29.393Z,46.30
2019-03-12T04:06:04.798Z,44.40
2019-03-12T04:06:40.294Z,36.10
2019-03-12T04:07:15.512Z,36.60
2019-03-12T04:07:50.991Z,37.30
2019-03-12T04:08:26.412Z,40.50
2019-03-12T04:09:01.803Z,42.10
2019-03-12T04:09:37.230Z,37.10
2019-03-12T04:10:12.450Z,34.00
2019-03-12T04:10:47.930Z,35.50
2019-03-12T04:11:23.326Z,36.00
2019-03-12T04:11:58.837Z,37.80
2019-03-12T04:12:34.262Z,42.20
2019-03-12T04:13:09.511Z,40.00
2019-03-12T04:13:45.165Z,34.00
2019-03-12T04:14:20.495Z,38.10
2019-03-12T04:14:55.978Z,46.50
2019-03-12T04:15:31.196Z,46.70
2019-03-12T04:16:06.391Z,47.30
2019-03-12T04:16:41.939Z,46.20
2019-03-12T04:17:17.344Z,34.20
2019-03-12T04:17:52.658Z,30.10
2019-03-12T04:18:27.970Z,41.30
2019-03-12T04:19:03.278Z,47.50
2019-03-12T04:19:38.787Z,37.80
2019-03-12T04:20:14.076Z,39.60
2019-03-12T04:20:49.338Z,36.00
2019-03-12T04:21:24.508Z,37.20
2019-03-12T04:21:59.738Z,41.50
2019-03-12T04:22:35.273Z,37.30
2019-03-12T04:23:10.649Z,38.50
2019-03-12T04:23:46.220Z,35.20
2019-03-12T04:24:21.467Z,35.30
2019-03-12T04:24:57.212Z,43.20
2019-03-12T04:25:32.826Z,42.30
2019-03-12T04:26:08.131Z,37.50
2019-03-12T04:26:43.684Z,38.60
2019-03-12T04:27:19.131Z,38.90
2019-03-12T04:27:54.548Z,36.00
2019-03-12T04:28:29.847Z,35.10
2019-03-12T04:29:05.163Z,40.60
2019-03-12T04:29:40.548Z,47.40
2019-03-12T04:30:15.959Z,44.60
2019-03-12T04:30:51.448Z,37.10
2019-03-12T04:31:26.663Z,36.30
2019-03-12T04:32:02.031Z,37.00
2019-03-12T04:32:37.215Z,35.40
2019-03-12T04:33:12.737Z,41.50
2019-03-12T04:33:48.019Z,42.20
2019-03-12T04:34:23.340Z,33.80
2019-03-12T04:34:58.654Z,38.40
2019-03-12T04:35:33.773Z,37.20
2019-03-12T04:36:09.198Z,39.60
2019-03-12T04:36:44.697Z,37.00
2019-03-12T04:37:20.245Z,39.30
2019-03-12T04:37:55.930Z,38.40
2019-03-12T04:38:31.354Z,40.90
2019-03-12T04:39:06.684Z,35.20
2019-03-12T04:39:42.091Z,36.20
2019-03-12T04:40:17.712Z,40.40
2019-03-12T04:40:52.995Z,40.60
2019-03-12T04:41:28.391Z,38.70
2019-03-12T04:42:03.893Z,36.20
2019-03-12T04:42:39.147Z,36.30
2019-03-12T04:43:14.475Z,32.90
2019-03-12T04:43:49.862Z,41.40
2019-03-12T04:44:25.386Z,43.00
2019-03-12T04:45:00.993Z,33.10
2019-03-12T04:45:36.015Z,31.80
2019-03-12T04:46:11.707Z,31.30
2019-03-12T04:46:46.935Z,35.00
2019-03-12T04:47:22.349Z,38.70
2019-03-12T04:47:57.856Z,37.40
2019-03-12T04:48:33.458Z,36.40
2019-03-12T04:49:08.942Z,39.10
2019-03-12T04:49:44.663Z,40.40
2019-03-12T04:50:20.253Z,35.70
2019-03-12T04:50:55.663Z,36.40
2019-03-12T04:51:31.249Z,33.20
2019-03-12T04:52:06.878Z,40.60
2019-03-12T04:52:42.625Z,40.90
2019-03-12T04:53:17.808Z,32.20
2019-03-12T04:53:53.225Z,35.10
2019-03-12T04:54:28.599Z,38.60
2019-03-12T04:55:03.819Z,38.10
2019-03-12T04:55:39.125Z,37.10
2019-03-12T04:56:14.529Z,34.20
2019-03-12T04:56:49.765Z,37.20
2019-03-12T04:57:24.945Z,38.10
2019-03-12T04:58:00.531Z,38.00
2019-03-12T04:58:35.718Z,33.10
2019-03-12T04:59:10.847Z,31.90
2019-03-12T04:59:46.091Z,27.00
2019-03-12T05:00:21.293Z,26.00
2019-03-12T05:00:57.039Z,28.30
2019-03-12T05:01:32.422Z,31.90
2019-03-12T05:02:07.988Z,27.90
2019-03-12T05:02:43.381Z,30.50
2019-03-12T05:03:18.935Z,27.80
2019-03-12T05:03:54.055Z,25.30
2019-03-12T05:04:29.339Z,30.20
2019-03-12T05:05:04.958Z,32.60
2019-03-12T05:05:40.263Z,40.20
2019-03-12T05:06:15.889Z,30.30
2019-03-12T05:06:51.108Z,26.70
2019-03-12T05:07:26.590Z,29.60
2019-03-12T05:08:01.937Z,34.90
2019-03-12T05:08:37.220Z,41.00
2019-03-12T05:09:12.551Z,33.50
2019-03-12T05:09:47.962Z,28.40
2019-03-12T05:10:23.270Z,31.90
2019-03-12T05:10:58.587Z,28.20
2019-03-12T05:11:34.284Z,29.40
2019-03-12T05:12:09.802Z,28.30
2019-03-12T05:12:45.529Z,25.50
2019-03-12T05:13:20.770Z,28.50
2019-03-12T05:13:55.877Z,31.00
2019-03-12T05:14:31.369Z,28.80
2019-03-12T05:15:06.474Z,31.40
2019-03-12T05:15:41.697Z,32.80
2019-03-12T05:16:17.012Z,34.70
2019-03-12T05:16:52.600Z,31.10
2019-03-12T05:17:28.036Z,28.50
2019-03-12T05:18:03.060Z,34.90
2019-03-12T05:18:38.470Z,30.30
2019-03-12T05:19:13.893Z,30.30
2019-03-12T05:19:49.479Z,28.40
2019-03-12T05:20:25.009Z,27.40
2019-03-12T05:21:00.420Z,28.20
2019-03-12T05:21:36.430Z,34.00
2019-03-12T05:22:11.773Z,40.70
2019-03-12T05:22:47.054Z,32.50
2019-03-12T05:23:22.396Z,27.50
2019-03-12T05:23:57.878Z,30.80
2019-03-12T05:24:33.300Z,37.20
2019-03-12T05:25:08.890Z,31.60
2019-03-12T05:25:44.527Z,30.50
2019-03-12T05:26:19.824Z,33.20
2019-03-12T05:26:55.433Z,33.10
2019-03-12T05:27:30.948Z,30.90
2019-03-12T05:28:06.590Z,33.70
2019-03-12T05:28:41.909Z,34.20
2019-03-12T05:29:17.497Z,28.30
2019-03-12T05:29:52.827Z,24.50
2019-03-12T05:30:28.211Z,24.30
2019-03-12T05:31:03.638Z,30.50
2019-03-12T05:31:38.968Z,30.10
2019-03-12T05:32:14.192Z,26.90
2019-03-12T05:32:49.788Z,25.80
2019-03-12T05:33:24.912Z,27.30
2019-03-12T05:34:00.232Z,29.50
2019-03-12T05:34:35.324Z,30.60
2019-03-12T05:35:10.651Z,29.40
2019-03-12T05:35:45.949Z,22.40
2019-03-12T05:36:21.275Z,25.50
2019-03-12T05:36:56.551Z,23.60
2019-03-12T05:37:32.283Z,30.50
2019-03-12T05:38:07.671Z,30.00
2019-03-12T05:38:43.215Z,26.40
2019-03-12T05:39:18.600Z,34.60
2019-03-12T05:39:54.017Z,33.80
2019-03-12T05:40:29.605Z,28.50
2019-03-12T05:41:04.621Z,25.50
2019-03-12T05:41:39.917Z,22.70
2019-03-12T05:42:15.334Z,23.80
2019-03-12T05:42:50.619Z,23.20
2019-03-12T05:43:26.054Z,24.40
2019-03-12T05:44:01.573Z,26.50
2019-03-12T05:44:36.827Z,27.20
2019-03-12T05:45:12.198Z,25.80
2019-03-12T05:45:47.515Z,26.80
2019-03-12T05:46:22.709Z,27.40
2019-03-12T05:46:58.113Z,28.10
2019-03-12T05:47:33.682Z,27.60
2019-03-12T05:48:09.108Z,29.00
2019-03-12T05:48:44.441Z,34.30
2019-03-12T05:49:19.880Z,31.30
2019-03-12T05:49:55.170Z,29.20
2019-03-12T05:50:30.280Z,29.00
2019-03-12T05:51:05.980Z,26.00
2019-03-12T05:51:41.515Z,25.30
2019-03-12T05:52:16.727Z,28.40
2019-03-12T05:52:51.864Z,29.90
2019-03-12T05:53:27.165Z,28.50
2019-03-12T05:54:02.502Z,27.40
2019-03-12T05:54:37.900Z,25.00
2019-03-12T05:55:13.142Z,26.80
2019-03-12T05:55:48.545Z,25.20
2019-03-12T05:56:23.876Z,25.70
2019-03-12T05:56:59.164Z,24.50
2019-03-12T05:57:34.499Z,29.80
2019-03-12T05:58:09.988Z,25.70
2019-03-12T05:58:45.329Z,25.00
2019-03-12T05:59:20.735Z,26.00
2019-03-12T05:59:56.392Z,23.60
2019-03-12T06:00:31.864Z,21.70
2019-03-12T06:01:07.123Z,24.30
2019-03-12T06:01:42.324Z,27.10
2019-03-12T06:02:17.749Z,18.30
2019-03-12T06:02:53.036Z,20.50
2019-03-12T06:03:28.460Z,24.80
2019-03-12T06:04:03.889Z,22.10
2019-03-12T06:04:38.988Z,24.10
2019-03-12T06:05:14.286Z,24.50
2019-03-12T06:05:49.913Z,23.90
2019-03-12T06:06:25.200Z,25.70
2019-03-12T06:07:00.549Z,19.00
2019-03-12T06:07:36.260Z,24.30
2019-03-12T06:08:11.595Z,26.40
2019-03-12T06:08:47.150Z,25.40
2019-03-12T06:09:30.326Z,28.80
2019-03-12T06:09:58.066Z,29.40
2019-03-12T06:10:33.397Z,28.30
2019-03-12T06:11:08.694Z,26.00
2019-03-12T06:11:43.914Z,22.70
2019-03-12T06:12:19.256Z,20.40
2019-03-12T06:12:54.446Z,28.50
2019-03-12T06:13:29.835Z,30.90
2019-03-12T06:14:05.202Z,33.00
2019-03-12T06:14:40.581Z,30.30
2019-03-12T06:15:15.825Z,26.60
2019-03-12T06:15:53.126Z,28.00
2019-03-12T06:16:26.139Z,25.70
2019-03-12T06:17:01.330Z,23.20
2019-03-12T06:17:36.841Z,29.10
2019-03-12T06:18:12.223Z,23.60
2019-03-12T06:18:47.680Z,19.60
2019-03-12T06:19:23.172Z,25.20
2019-03-12T06:19:58.291Z,25.50
2019-03-12T06:20:33.588Z,27.80
2019-03-12T06:21:08.812Z,22.30
2019-03-12T06:21:44.327Z,22.00
2019-03-12T06:22:19.743Z,22.10
2019-03-12T06:22:55.149Z,26.50
2019-03-12T06:23:30.500Z,26.60
2019-03-12T06:24:05.819Z,23.30
2019-03-12T06:24:41.040Z,22.00
2019-03-12T06:25:16.223Z,27.40
2019-03-12T06:25:51.560Z,28.30
2019-03-12T06:26:26.952Z,25.00
2019-03-12T06:27:02.494Z,21.30
2019-03-12T06:27:38.296Z,23.80
2019-03-12T06:28:13.424Z,27.70
2019-03-12T06:28:48.649Z,30.30
2019-03-12T06:29:24.074Z,30.10
2019-03-12T06:29:59.458Z,27.70
2019-03-12T06:30:35.296Z,20.90
2019-03-12T06:31:10.587Z,23.30
2019-03-12T06:31:46.207Z,24.70
2019-03-12T06:32:21.703Z,22.10
2019-03-12T06:32:57.311Z,27.30
2019-03-12T06:33:32.449Z,23.90
2019-03-12T06:34:07.816Z,21.20
2019-03-12T06:34:43.330Z,25.70
2019-03-12T06:35:18.821Z,24.40
2019-03-12T06:35:54.654Z,23.30
2019-03-12T06:36:29.884Z,19.80
2019-03-12T06:37:05.274Z,19.70
2019-03-12T06:37:40.544Z,21.80
2019-03-12T06:38:15.827Z,28.60
2019-03-12T06:38:51.085Z,27.10
2019-03-12T06:39:26.673Z,33.90
2019-03-12T06:40:01.686Z,29.60
2019-03-12T06:40:37.080Z,21.10
2019-03-12T06:41:12.712Z,20.40
2019-03-12T06:41:48.111Z,25.60
2019-03-12T06:42:23.241Z,27.40
2019-03-12T06:42:58.434Z,26.60
2019-03-12T06:43:33.762Z,22.40
2019-03-12T06:44:09.074Z,17.00
2019-03-12T06:44:44.917Z,19.20
2019-03-12T06:45:20.099Z,20.00
2019-03-12T06:45:55.431Z,18.70
2019-03-12T06:46:30.941Z,20.50
2019-03-12T06:47:06.375Z,18.00
2019-03-12T06:47:41.779Z,16.90
2019-03-12T06:48:17.510Z,26.30
2019-03-12T06:48:53.015Z,27.30
2019-03-12T06:49:28.433Z,21.10
2019-03-12T06:50:03.734Z,26.10
2019-03-12T06:50:39.158Z,27.80
2019-03-12T06:51:14.840Z,25.20
2019-03-12T06:51:50.174Z,19.30
2019-03-12T06:52:25.467Z,24.20
2019-03-12T06:53:00.892Z,24.20
2019-03-12T06:53:36.279Z,30.30
2019-03-12T06:54:11.638Z,21.80
2019-03-12T06:54:47.018Z,18.20
2019-03-12T06:55:22.345Z,20.50
2019-03-12T06:55:57.541Z,21.20
2019-03-12T06:56:33.082Z,23.90
2019-03-12T06:57:08.763Z,24.60
2019-03-12T06:57:44.286Z,20.60
2019-03-12T06:58:19.692Z,23.90
2019-03-12T06:58:55.478Z,27.90
2019-03-12T06:59:30.740Z,20.90
2019-03-12T07:00:06.160Z,20.20
2019-03-12T07:00:41.656Z,23.60
2019-03-12T07:01:17.173Z,22.10
2019-03-12T07:01:52.541Z,20.30
2019-03-12T07:02:27.591Z,18.10
2019-03-12T07:03:02.788Z,21.80
2019-03-12T07:03:38.165Z,24.30
2019-03-12T07:04:13.505Z,25.80
2019-03-12T07:04:49.246Z,30.30
2019-03-12T07:05:24.732Z,28.90
2019-03-12T07:05:59.860Z,27.90
2019-03-12T07:06:35.148Z,23.60
2019-03-12T07:07:11.555Z,20.60
2019-03-12T07:07:46.812Z,20.00
2019-03-12T07:08:20.907Z,20.00
2019-03-12T07:08:56.223Z,17.60
2019-03-12T07:09:31.555Z,17.00
2019-03-12T07:10:06.886Z,17.70
2019-03-12T07:10:42.379Z,20.30
2019-03-12T07:11:17.681Z,21.20
2019-03-12T07:11:53.425Z,19.60
2019-03-12T07:12:28.930Z,18.10
2019-03-12T07:13:04.269Z,15.90
2019-03-12T07:13:39.464Z,15.80
2019-03-12T07:14:15.013Z,19.70
2019-03-12T07:14:51.121Z,23.70
2019-03-12T07:15:26.655Z,24.30
2019-03-12T07:16:01.968Z,19.80
2019-03-12T07:16:37.499Z,16.90
2019-03-12T07:17:12.598Z,18.00
2019-03-12T07:17:47.926Z,18.70
2019-03-12T07:18:23.341Z,16.80
2019-03-12T07:18:58.696Z,19.50
2019-03-12T07:19:34.393Z,20.10
2019-03-12T07:20:13.013Z,18.90
2019-03-12T07:20:45.131Z,19.70
2019-03-12T07:21:20.363Z,14.10
2019-03-12T07:21:55.758Z,22.10
2019-03-12T07:22:31.103Z,24.20
2019-03-12T07:23:06.414Z,22.60
2019-03-12T07:23:41.935Z,16.90
2019-03-12T07:24:17.436Z,18.90
2019-03-12T07:24:52.863Z,19.00
2019-03-12T07:25:28.069Z,18.00
2019-03-12T07:26:03.327Z,18.00
2019-03-12T07:26:38.454Z,17.30
2019-03-12T07:27:13.927Z,21.60
2019-03-12T07:27:49.332Z,25.10
2019-03-12T07:28:24.486Z,24.30
2019-03-12T07:29:00.012Z,17.40
2019-03-12T07:29:35.277Z,21.00
2019-03-12T07:30:12.914Z,18.80
2019-03-12T07:30:46.238Z,22.00
2019-03-12T07:31:21.955Z,21.80
2019-03-12T07:31:57.423Z,17.30
2019-03-12T07:32:33.285Z,18.90
2019-03-12T07:33:08.745Z,21.10
2019-03-12T07:33:44.326Z,19.50
2019-03-12T07:34:19.810Z,17.40
2019-03-12T07:34:55.025Z,16.20
2019-03-12T07:35:30.473Z,18.40